sensor_id;sensor_type;location;lat;lon;timestamp;temperature;humidity
55331;DHT22;58851;42.984;20.336;2023-04-29T00:01:14;231.10;6502.40
55331;DHT22;58851;42.984;20.336;2023-04-29T00:03:40;231.10;6502.40
55331;DHT22;58851;42.984;20.336;2023-04-29T00:06:05;231.10;6502.40
55331;DHT22;58851;42.984;20.336;2023-04-29T00:08:31;231.10;6502.40
55331;DHT22;58851;42.984;20.336;2023-04-29T00:10:57;231.10;6502.40
55331;DHT22;58851;42.984;20.336;2023-04-29T00:13:23;231.10;6502.40
55331;DHT22;58851;42.984;20.336;2023-04-29T00:15:49;231.00;6502.40
55331;DHT22;58851;42.984;20.336;2023-04-29T00:18:15;231.00;6502.40
55331;DHT22;58851;42.984;20.336;2023-04-29T00:20:41;231.00;6502.40
55331;DHT22;58851;42.984;20.336;2023-04-29T00:23:07;230.90;6502.40
55331;DHT22;58851;42.984;20.336;2023-04-29T00:25:33;230.90;6502.40
55331;DHT22;58851;42.984;20.336;2023-04-29T00:28:01;231.00;6502.40
55331;DHT22;58851;42.984;20.336;2023-04-29T00:30:27;231.00;6502.40
55331;DHT22;58851;42.984;20.336;2023-04-29T00:32:53;230.90;6502.40
55331;DHT22;58851;42.984;20.336;2023-04-29T00:35:20;231.00;6502.40
55331;DHT22;58851;42.984;20.336;2023-04-29T00:37:46;231.00;6502.40
55331;DHT22;58851;42.984;20.336;2023-04-29T00:40:12;231.00;6502.40
55331;DHT22;58851;42.984;20.336;2023-04-29T00:42:39;231.00;6502.40
55331;DHT22;58851;42.984;20.336;2023-04-29T00:45:07;231.10;6502.40
55331;DHT22;58851;42.984;20.336;2023-04-29T00:47:33;231.10;6502.40
55331;DHT22;58851;42.984;20.336;2023-04-29T00:49:58;231.10;6502.40
55331;DHT22;58851;42.984;20.336;2023-04-29T00:52:25;231.00;6502.40
55331;DHT22;58851;42.984;20.336;2023-04-29T00:54:53;230.90;6502.40
55331;DHT22;58851;42.984;20.336;2023-04-29T00:57:20;230.90;6502.40
55331;DHT22;58851;42.984;20.336;2023-04-29T00:59:47;231.00;6502.40
55331;DHT22;58851;42.984;20.336;2023-04-29T01:02:14;231.00;6502.40
55331;DHT22;58851;42.984;20.336;2023-04-29T01:04:41;231.00;6502.40
55331;DHT22;58851;42.984;20.336;2023-04-29T01:12:44;230.90;6502.40
55331;DHT22;58851;42.984;20.336;2023-04-29T01:15:22;230.90;6502.40
55331;DHT22;58851;42.984;20.336;2023-04-29T01:18:09;230.90;6502.40
55331;DHT22;58851;42.984;20.336;2023-04-29T01:20:37;231.00;6502.40
55331;DHT22;58851;42.984;20.336;2023-04-29T01:23:03;231.00;6502.40
55331;DHT22;58851;42.984;20.336;2023-04-29T01:25:29;230.90;6502.40
55331;DHT22;58851;42.984;20.336;2023-04-29T01:41:12;230.80;6502.40
55331;DHT22;58851;42.984;20.336;2023-04-29T01:43:40;230.80;6502.40
55331;DHT22;58851;42.984;20.336;2023-04-29T01:46:08;230.90;6502.40
55331;DHT22;58851;42.984;20.336;2023-04-29T01:48:36;230.90;6502.40
55331;DHT22;58851;42.984;20.336;2023-04-29T01:51:02;230.90;6502.40
55331;DHT22;58851;42.984;20.336;2023-04-29T01:53:30;231.00;6502.40
55331;DHT22;58851;42.984;20.336;2023-04-29T01:55:55;231.00;6502.40
55331;DHT22;58851;42.984;20.336;2023-04-29T01:58:21;231.00;6502.40
55331;DHT22;58851;42.984;20.336;2023-04-29T02:00:47;230.90;6502.40
55331;DHT22;58851;42.984;20.336;2023-04-29T02:03:13;230.90;6502.40
55331;DHT22;58851;42.984;20.336;2023-04-29T02:05:38;230.80;6502.40
55331;DHT22;58851;42.984;20.336;2023-04-29T02:08:04;230.80;6502.40
55331;DHT22;58851;42.984;20.336;2023-04-29T02:10:32;230.90;6502.40
55331;DHT22;58851;42.984;20.336;2023-04-29T02:12:58;230.90;6502.40
55331;DHT22;58851;42.984;20.336;2023-04-29T02:15:26;230.90;6502.40
55331;DHT22;58851;42.984;20.336;2023-04-29T02:17:52;230.90;6502.40
55331;DHT22;58851;42.984;20.336;2023-04-29T02:20:19;230.90;6502.40
55331;DHT22;58851;42.984;20.336;2023-04-29T02:22:45;230.90;6502.40
55331;DHT22;58851;42.984;20.336;2023-04-29T02:25:11;230.90;6502.40
55331;DHT22;58851;42.984;20.336;2023-04-29T02:27:37;230.90;6502.40
55331;DHT22;58851;42.984;20.336;2023-04-29T02:30:03;230.90;6502.40
55331;DHT22;58851;42.984;20.336;2023-04-29T02:32:30;230.90;6502.40
55331;DHT22;58851;42.984;20.336;2023-04-29T02:34:56;230.90;6502.40
55331;DHT22;58851;42.984;20.336;2023-04-29T02:37:22;230.90;6502.40
55331;DHT22;58851;42.984;20.336;2023-04-29T02:39:48;230.90;6502.40
55331;DHT22;58851;42.984;20.336;2023-04-29T02:42:14;230.90;6502.40
55331;DHT22;58851;42.984;20.336;2023-04-29T02:44:39;230.90;6502.40
55331;DHT22;58851;42.984;20.336;2023-04-29T02:47:06;230.90;6502.40
55331;DHT22;58851;42.984;20.336;2023-04-29T02:49:32;230.90;6502.40
55331;DHT22;58851;42.984;20.336;2023-04-29T02:51:58;230.90;6502.40
55331;DHT22;58851;42.984;20.336;2023-04-29T02:54:24;230.90;6502.40
55331;DHT22;58851;42.984;20.336;2023-04-29T02:56:50;231.00;6502.40
55331;DHT22;58851;42.984;20.336;2023-04-29T02:59:15;230.90;6502.40
55331;DHT22;58851;42.984;20.336;2023-04-29T03:01:41;231.00;6502.40
55331;DHT22;58851;42.984;20.336;2023-04-29T03:04:07;230.90;6502.40
55331;DHT22;58851;42.984;20.336;2023-04-29T03:06:33;230.90;6502.40
55331;DHT22;58851;42.984;20.336;2023-04-29T03:08:59;230.90;6502.40
55331;DHT22;58851;42.984;20.336;2023-04-29T03:11:24;230.90;6502.40
55331;DHT22;58851;42.984;20.336;2023-04-29T03:13:50;230.90;6502.40
55331;DHT22;58851;42.984;20.336;2023-04-29T03:16:16;230.90;6502.40
55331;DHT22;58851;42.984;20.336;2023-04-29T03:18:43;231.00;6502.40
55331;DHT22;58851;42.984;20.336;2023-04-29T03:21:09;231.00;6502.40
55331;DHT22;58851;42.984;20.336;2023-04-29T03:23:35;230.90;6502.40
55331;DHT22;58851;42.984;20.336;2023-04-29T03:26:01;230.90;6502.40
55331;DHT22;58851;42.984;20.336;2023-04-29T03:28:27;230.90;6502.40
55331;DHT22;58851;42.984;20.336;2023-04-29T03:30:53;230.90;6502.40
55331;DHT22;58851;42.984;20.336;2023-04-29T03:33:21;230.80;6502.40
55331;DHT22;58851;42.984;20.336;2023-04-29T03:35:46;230.90;6502.40
55331;DHT22;58851;42.984;20.336;2023-04-29T03:38:12;230.80;6502.40
55331;DHT22;58851;42.984;20.336;2023-04-29T03:40:39;230.80;6502.40
55331;DHT22;58851;42.984;20.336;2023-04-29T03:43:05;230.90;6502.40
55331;DHT22;58851;42.984;20.336;2023-04-29T03:45:33;230.90;6502.40
55331;DHT22;58851;42.984;20.336;2023-04-29T03:47:59;230.90;6502.40
55331;DHT22;58851;42.984;20.336;2023-04-29T03:50:25;230.80;6502.40
55331;DHT22;58851;42.984;20.336;2023-04-29T03:52:51;230.80;6502.40
55331;DHT22;58851;42.984;20.336;2023-04-29T03:55:17;230.80;6502.40
55331;DHT22;58851;42.984;20.336;2023-04-29T03:57:43;230.80;6502.40
55331;DHT22;58851;42.984;20.336;2023-04-29T04:00:09;230.80;6502.40
55331;DHT22;58851;42.984;20.336;2023-04-29T04:02:35;230.80;6502.40
55331;DHT22;58851;42.984;20.336;2023-04-29T04:05:01;230.80;6502.40
55331;DHT22;58851;42.984;20.336;2023-04-29T04:07:27;230.80;6502.40
55331;DHT22;58851;42.984;20.336;2023-04-29T04:09:53;230.80;6502.40
55331;DHT22;58851;42.984;20.336;2023-04-29T04:12:19;230.80;6502.40
55331;DHT22;58851;42.984;20.336;2023-04-29T04:14:45;230.80;6502.40
55331;DHT22;58851;42.984;20.336;2023-04-29T04:17:10;230.90;6502.40
55331;DHT22;58851;42.984;20.336;2023-04-29T04:19:36;230.90;6502.40
55331;DHT22;58851;42.984;20.336;2023-04-29T04:22:03;230.90;6502.40
55331;DHT22;58851;42.984;20.336;2023-04-29T04:24:29;230.90;6502.40
55331;DHT22;58851;42.984;20.336;2023-04-29T04:26:55;230.90;6502.40
55331;DHT22;58851;42.984;20.336;2023-04-29T04:29:20;230.90;6502.40
55331;DHT22;58851;42.984;20.336;2023-04-29T04:31:46;230.90;6502.40
55331;DHT22;58851;42.984;20.336;2023-04-29T04:34:12;231.00;6502.40
55331;DHT22;58851;42.984;20.336;2023-04-29T04:36:38;231.00;6502.40
55331;DHT22;58851;42.984;20.336;2023-04-29T04:39:03;231.00;6502.40
55331;DHT22;58851;42.984;20.336;2023-04-29T04:41:29;231.00;6502.40
55331;DHT22;58851;42.984;20.336;2023-04-29T04:43:58;231.10;6502.40
55331;DHT22;58851;42.984;20.336;2023-04-29T04:46:23;231.20;6502.40
55331;DHT22;58851;42.984;20.336;2023-04-29T04:48:49;231.20;6502.40
55331;DHT22;58851;42.984;20.336;2023-04-29T04:51:15;231.20;6502.40
55331;DHT22;58851;42.984;20.336;2023-04-29T04:53:41;231.20;6502.40
55331;DHT22;58851;42.984;20.336;2023-04-29T04:56:07;231.30;6502.40
55331;DHT22;58851;42.984;20.336;2023-04-29T04:58:33;256.00;6502.40
55331;DHT22;58851;42.984;20.336;2023-04-29T05:00:59;256.10;6502.40
55331;DHT22;58851;42.984;20.336;2023-04-29T05:03:25;256.10;6502.40
55331;DHT22;58851;42.984;20.336;2023-04-29T05:05:58;256.20;6502.40
55331;DHT22;58851;42.984;20.336;2023-04-29T05:08:25;256.20;6502.40
55331;DHT22;58851;42.984;20.336;2023-04-29T05:10:51;256.40;6502.40
55331;DHT22;58851;42.984;20.336;2023-04-29T05:13:17;256.40;6502.40
55331;DHT22;58851;42.984;20.336;2023-04-29T05:15:44;256.50;6502.40
55331;DHT22;58851;42.984;20.336;2023-04-29T05:18:10;256.60;6502.40
55331;DHT22;58851;42.984;20.336;2023-04-29T05:20:36;256.70;6502.40
55331;DHT22;58851;42.984;20.336;2023-04-29T05:23:02;256.80;6502.40
55331;DHT22;58851;42.984;20.336;2023-04-29T05:25:28;256.80;6502.40
55331;DHT22;58851;42.984;20.336;2023-04-29T05:27:54;256.90;6502.40
55331;DHT22;58851;42.984;20.336;2023-04-29T05:30:20;256.90;6502.40
55331;DHT22;58851;42.984;20.336;2023-04-29T05:32:46;281.60;6528.00
55331;DHT22;58851;42.984;20.336;2023-04-29T05:35:14;281.60;6528.00
55331;DHT22;58851;42.984;20.336;2023-04-29T05:37:40;281.80;6528.00
55331;DHT22;58851;42.984;20.336;2023-04-29T05:40:06;281.80;6528.00
55331;DHT22;58851;42.984;20.336;2023-04-29T05:42:32;281.80;6528.00
55331;DHT22;58851;42.984;20.336;2023-04-29T05:44:58;281.80;6528.00
55331;DHT22;58851;42.984;20.336;2023-04-29T05:47:24;281.80;6528.00
55331;DHT22;58851;42.984;20.336;2023-04-29T05:49:49;281.80;6528.00
55331;DHT22;58851;42.984;20.336;2023-04-29T05:52:15;281.80;6528.00
55331;DHT22;58851;42.984;20.336;2023-04-29T05:54:41;281.80;6528.00
55331;DHT22;58851;42.984;20.336;2023-04-29T05:57:07;281.80;6528.00
55331;DHT22;58851;42.984;20.336;2023-04-29T05:59:33;281.80;6528.00
55331;DHT22;58851;42.984;20.336;2023-04-29T06:01:59;281.90;6528.00
55331;DHT22;58851;42.984;20.336;2023-04-29T06:04:25;281.90;588.80
55331;DHT22;58851;42.984;20.336;2023-04-29T06:06:52;281.80;537.60
55331;DHT22;58851;42.984;20.336;2023-04-29T06:09:19;281.80;6528.00
55331;DHT22;58851;42.984;20.336;2023-04-29T06:11:45;281.90;6528.00
55331;DHT22;58851;42.984;20.336;2023-04-29T06:14:11;282.00;588.80
55331;DHT22;58851;42.984;20.336;2023-04-29T06:16:37;282.00;6528.00
55331;DHT22;58851;42.984;20.336;2023-04-29T06:19:03;282.00;512.00
55331;DHT22;58851;42.984;20.336;2023-04-29T06:21:29;282.00;6528.00
55331;DHT22;58851;42.984;20.336;2023-04-29T06:23:56;282.00;588.80
55331;DHT22;58851;42.984;20.336;2023-04-29T06:26:22;282.10;409.60
55331;DHT22;58851;42.984;20.336;2023-04-29T06:28:48;282.00;384.00
55331;DHT22;58851;42.984;20.336;2023-04-29T06:31:14;282.10;358.40
55331;DHT22;58851;42.984;20.336;2023-04-29T06:33:40;282.30;307.20
55331;DHT22;58851;42.984;20.336;2023-04-29T06:36:06;282.30;230.40
55331;DHT22;58851;42.984;20.336;2023-04-29T06:38:32;282.40;384.00
55331;DHT22;58851;42.984;20.336;2023-04-29T06:40:58;282.40;179.20
55331;DHT22;58851;42.984;20.336;2023-04-29T06:43:28;282.40;384.00
55331;DHT22;58851;42.984;20.336;2023-04-29T06:45:54;307.20;128.00
55331;DHT22;58851;42.984;20.336;2023-04-29T06:48:20;307.30;256.00
55331;DHT22;58851;42.984;20.336;2023-04-29T06:53:15;307.50;204.80
55331;DHT22;58851;42.984;20.336;2023-04-29T06:55:41;307.50;128.00
55331;DHT22;58851;42.984;20.336;2023-04-29T06:58:06;307.50;128.00
55331;DHT22;58851;42.984;20.336;2023-04-29T07:00:32;307.40;128.00
55331;DHT22;58851;42.984;20.336;2023-04-29T07:02:58;307.60;128.00
55331;DHT22;58851;42.984;20.336;2023-04-29T07:05:24;307.60;128.00
55331;DHT22;58851;42.984;20.336;2023-04-29T07:07:50;307.60;128.00
55331;DHT22;58851;42.984;20.336;2023-04-29T07:10:16;307.80;128.00
55331;DHT22;58851;42.984;20.336;2023-04-29T07:12:42;307.90;128.00
55331;DHT22;58851;42.984;20.336;2023-04-29T07:15:08;308.10;128.00
55331;DHT22;58851;42.984;20.336;2023-04-29T07:17:33;332.80;128.00
55331;DHT22;58851;42.984;20.336;2023-04-29T07:19:59;332.90;128.00
55331;DHT22;58851;42.984;20.336;2023-04-29T07:22:25;333.00;128.00
55331;DHT22;58851;42.984;20.336;2023-04-29T07:24:54;333.20;128.00
55331;DHT22;58851;42.984;20.336;2023-04-29T07:27:20;333.30;128.00
55331;DHT22;58851;42.984;20.336;2023-04-29T07:29:46;333.50;128.00
55331;DHT22;58851;42.984;20.336;2023-04-29T07:32:12;333.60;128.00
55331;DHT22;58851;42.984;20.336;2023-04-29T07:34:37;358.40;128.00
55331;DHT22;58851;42.984;20.336;2023-04-29T07:37:03;358.60;128.00
55331;DHT22;58851;42.984;20.336;2023-04-29T07:39:29;358.60;128.00
55331;DHT22;58851;42.984;20.336;2023-04-29T07:41:56;358.60;128.00
55331;DHT22;58851;42.984;20.336;2023-04-29T07:44:22;358.60;128.00
55331;DHT22;58851;42.984;20.336;2023-04-29T07:46:48;358.90;128.00
55331;DHT22;58851;42.984;20.336;2023-04-29T07:49:13;359.10;128.00
55331;DHT22;58851;42.984;20.336;2023-04-29T07:51:42;384.00;128.00
55331;DHT22;58851;42.984;20.336;2023-04-29T07:54:08;384.10;128.00
55331;DHT22;58851;42.984;20.336;2023-04-29T07:56:34;384.20;128.00
55331;DHT22;58851;42.984;20.336;2023-04-29T07:59:00;384.30;128.00
55331;DHT22;58851;42.984;20.336;2023-04-29T08:01:26;384.40;128.00
55331;DHT22;58851;42.984;20.336;2023-04-29T08:03:56;384.60;128.00
55331;DHT22;58851;42.984;20.336;2023-04-29T08:06:21;384.60;128.00
55331;DHT22;58851;42.984;20.336;2023-04-29T08:08:48;384.70;128.00
55331;DHT22;58851;42.984;20.336;2023-04-29T08:11:20;384.90;128.00
55331;DHT22;58851;42.984;20.336;2023-04-29T08:13:48;409.90;128.00
55331;DHT22;58851;42.984;20.336;2023-04-29T08:16:14;410.10;128.00
55331;DHT22;58851;42.984;20.336;2023-04-29T08:18:40;409.90;128.00
55331;DHT22;58851;42.984;20.336;2023-04-29T08:21:06;410.00;128.00
55331;DHT22;58851;42.984;20.336;2023-04-29T08:23:32;409.90;128.00
55331;DHT22;58851;42.984;20.336;2023-04-29T08:25:57;410.30;128.00
55331;DHT22;58851;42.984;20.336;2023-04-29T08:28:23;410.50;128.00
55331;DHT22;58851;42.984;20.336;2023-04-29T08:30:49;410.40;128.00
55331;DHT22;58851;42.984;20.336;2023-04-29T08:33:15;435.20;128.00
55331;DHT22;58851;42.984;20.336;2023-04-29T08:35:41;435.30;128.00
55331;DHT22;58851;42.984;20.336;2023-04-29T08:38:08;435.50;128.00
55331;DHT22;58851;42.984;20.336;2023-04-29T08:40:44;435.60;128.00
55331;DHT22;58851;42.984;20.336;2023-04-29T08:43:13;435.80;128.00
55331;DHT22;58851;42.984;20.336;2023-04-29T08:45:40;436.00;128.00
55331;DHT22;58851;42.984;20.336;2023-04-29T08:48:07;435.90;128.00
55331;DHT22;58851;42.984;20.336;2023-04-29T08:50:40;435.90;128.00
55331;DHT22;58851;42.984;20.336;2023-04-29T08:53:07;435.90;128.00
55331;DHT22;58851;42.984;20.336;2023-04-29T08:55:44;435.90;128.00
55331;DHT22;58851;42.984;20.336;2023-04-29T08:58:10;435.80;128.00
55331;DHT22;58851;42.984;20.336;2023-04-29T09:00:39;435.80;128.00
55331;DHT22;58851;42.984;20.336;2023-04-29T09:03:21;435.80;128.00
55331;DHT22;58851;42.984;20.336;2023-04-29T09:05:52;435.80;128.00
55331;DHT22;58851;42.984;20.336;2023-04-29T09:08:21;435.80;128.00
55331;DHT22;58851;42.984;20.336;2023-04-29T09:10:50;435.80;128.00
55331;DHT22;58851;42.984;20.336;2023-04-29T09:13:29;435.80;128.00
55331;DHT22;58851;42.984;20.336;2023-04-29T09:15:56;435.70;128.00
55331;DHT22;58851;42.984;20.336;2023-04-29T09:18:47;435.70;128.00
55331;DHT22;58851;42.984;20.336;2023-04-29T09:21:19;435.70;128.00
55331;DHT22;58851;42.984;20.336;2023-04-29T09:23:46;435.20;128.00
55331;DHT22;58851;42.984;20.336;2023-04-29T09:26:13;410.30;128.00
55331;DHT22;58851;42.984;20.336;2023-04-29T09:28:39;410.20;128.00
55331;DHT22;58851;42.984;20.336;2023-04-29T09:31:08;410.00;128.00
55331;DHT22;58851;42.984;20.336;2023-04-29T09:33:55;409.80;128.00
55331;DHT22;58851;42.984;20.336;2023-04-29T09:36:45;409.70;128.00
55331;DHT22;58851;42.984;20.336;2023-04-29T09:44:18;409.60;128.00
55331;DHT22;58851;42.984;20.336;2023-04-29T09:46:58;409.60;128.00
55331;DHT22;58851;42.984;20.336;2023-04-29T09:49:29;409.60;128.00
55331;DHT22;58851;42.984;20.336;2023-04-29T09:51:59;409.70;128.00
55331;DHT22;58851;42.984;20.336;2023-04-29T09:54:28;384.90;128.00
55331;DHT22;58851;42.984;20.336;2023-04-29T09:56:55;384.90;128.00
55331;DHT22;58851;42.984;20.336;2023-04-29T09:59:22;384.70;128.00
55331;DHT22;58851;42.984;20.336;2023-04-29T10:01:53;384.80;128.00
55331;DHT22;58851;42.984;20.336;2023-04-29T10:04:21;384.90;128.00
55331;DHT22;58851;42.984;20.336;2023-04-29T10:06:50;384.90;128.00
55331;DHT22;58851;42.984;20.336;2023-04-29T10:09:17;384.80;128.00
55331;DHT22;58851;42.984;20.336;2023-04-29T10:11:52;384.80;128.00
55331;DHT22;58851;42.984;20.336;2023-04-29T10:14:23;384.90;128.00
55331;DHT22;58851;42.984;20.336;2023-04-29T10:16:58;384.90;128.00
55331;DHT22;58851;42.984;20.336;2023-04-29T10:22:16;384.90;128.00
55331;DHT22;58851;42.984;20.336;2023-04-29T10:24:44;384.90;128.00
55331;DHT22;58851;42.984;20.336;2023-04-29T10:27:11;409.60;128.00
55331;DHT22;58851;42.984;20.336;2023-04-29T10:29:39;384.80;128.00
55331;DHT22;58851;42.984;20.336;2023-04-29T10:32:09;409.60;128.00
55331;DHT22;58851;42.984;20.336;2023-04-29T10:34:37;409.60;128.00
55331;DHT22;58851;42.984;20.336;2023-04-29T10:37:08;409.60;128.00
55331;DHT22;58851;42.984;20.336;2023-04-29T10:42:36;409.70;128.00
55331;DHT22;58851;42.984;20.336;2023-04-29T10:50:31;409.60;128.00
55331;DHT22;58851;42.984;20.336;2023-04-29T10:53:00;409.80;128.00
55331;DHT22;58851;42.984;20.336;2023-04-29T10:55:27;409.80;128.00
55331;DHT22;58851;42.984;20.336;2023-04-29T10:57:57;409.70;128.00
55331;DHT22;58851;42.984;20.336;2023-04-29T11:00:27;409.80;128.00
55331;DHT22;58851;42.984;20.336;2023-04-29T11:02:53;409.80;128.00
55331;DHT22;58851;42.984;20.336;2023-04-29T11:05:33;409.90;128.00
55331;DHT22;58851;42.984;20.336;2023-04-29T11:10:40;409.90;128.00
55331;DHT22;58851;42.984;20.336;2023-04-29T11:13:28;410.00;128.00
55331;DHT22;58851;42.984;20.336;2023-04-29T11:16:10;410.00;128.00
55331;DHT22;58851;42.984;20.336;2023-04-29T11:21:36;409.80;128.00
55331;DHT22;58851;42.984;20.336;2023-04-29T11:24:03;384.90;128.00
55331;DHT22;58851;42.984;20.336;2023-04-29T11:26:33;384.80;128.00
55331;DHT22;58851;42.984;20.336;2023-04-29T11:28:59;384.70;128.00
55331;DHT22;58851;42.984;20.336;2023-04-29T11:31:34;358.80;128.00
55331;DHT22;58851;42.984;20.336;2023-04-29T11:33:59;358.90;128.00
55331;DHT22;58851;42.984;20.336;2023-04-29T11:36:27;359.00;128.00
55331;DHT22;58851;42.984;20.336;2023-04-29T11:38:56;359.10;128.00
55331;DHT22;58851;42.984;20.336;2023-04-29T11:41:24;358.80;128.00
55331;DHT22;58851;42.984;20.336;2023-04-29T11:43:58;333.70;128.00
55331;DHT22;58851;42.984;20.336;2023-04-29T11:46:24;333.30;2329.60
55331;DHT22;58851;42.984;20.336;2023-04-29T11:48:50;333.00;2329.60
55331;DHT22;58851;42.984;20.336;2023-04-29T11:51:17;332.90;2329.60
55331;DHT22;58851;42.984;20.336;2023-04-29T11:53:44;332.90;128.00
55331;DHT22;58851;42.984;20.336;2023-04-29T11:56:10;333.00;2329.60
55331;DHT22;58851;42.984;20.336;2023-04-29T11:58:36;333.00;128.00
55331;DHT22;58851;42.984;20.336;2023-04-29T12:01:03;333.10;128.00
55331;DHT22;58851;42.984;20.336;2023-04-29T12:03:31;333.20;128.00
55331;DHT22;58851;42.984;20.336;2023-04-29T12:05:57;333.20;998.40
55331;DHT22;58851;42.984;20.336;2023-04-29T12:08:25;333.30;2329.60
55331;DHT22;58851;42.984;20.336;2023-04-29T12:10:52;333.50;128.00
55331;DHT22;58851;42.984;20.336;2023-04-29T12:13:19;333.50;563.20
55331;DHT22;58851;42.984;20.336;2023-04-29T12:15:49;333.70;128.00
55331;DHT22;58851;42.984;20.336;2023-04-29T12:18:16;333.70;1049.60
55331;DHT22;58851;42.984;20.336;2023-04-29T12:20:43;358.40;1177.60
55331;DHT22;58851;42.984;20.336;2023-04-29T12:23:13;358.40;2329.60
55331;DHT22;58851;42.984;20.336;2023-04-29T12:25:40;358.50;2329.60
55331;DHT22;58851;42.984;20.336;2023-04-29T12:28:13;358.60;2329.60
55331;DHT22;58851;42.984;20.336;2023-04-29T12:30:39;358.60;2329.60
55331;DHT22;58851;42.984;20.336;2023-04-29T12:33:08;358.70;2329.60
55331;DHT22;58851;42.984;20.336;2023-04-29T12:35:35;358.90;1971.20
55331;DHT22;58851;42.984;20.336;2023-04-29T12:38:01;359.00;2278.40
55331;DHT22;58851;42.984;20.336;2023-04-29T12:40:27;359.20;128.00
55331;DHT22;58851;42.984;20.336;2023-04-29T12:42:53;384.00;128.00
55331;DHT22;58851;42.984;20.336;2023-04-29T12:45:30;384.10;128.00
55331;DHT22;58851;42.984;20.336;2023-04-29T12:47:57;384.20;128.00
55331;DHT22;58851;42.984;20.336;2023-04-29T12:50:41;384.20;128.00
55331;DHT22;58851;42.984;20.336;2023-04-29T12:53:08;384.20;128.00
55331;DHT22;58851;42.984;20.336;2023-04-29T12:55:35;384.20;128.00
55331;DHT22;58851;42.984;20.336;2023-04-29T12:58:02;384.30;128.00
55331;DHT22;58851;42.984;20.336;2023-04-29T13:00:29;384.30;128.00
55331;DHT22;58851;42.984;20.336;2023-04-29T13:02:55;384.30;128.00
55331;DHT22;58851;42.984;20.336;2023-04-29T13:05:21;384.30;128.00
55331;DHT22;58851;42.984;20.336;2023-04-29T13:07:48;384.30;128.00
55331;DHT22;58851;42.984;20.336;2023-04-29T13:10:14;384.50;128.00
55331;DHT22;58851;42.984;20.336;2023-04-29T13:12:40;384.50;128.00
55331;DHT22;58851;42.984;20.336;2023-04-29T13:15:07;384.50;128.00
55331;DHT22;58851;42.984;20.336;2023-04-29T13:17:36;384.40;358.40
55331;DHT22;58851;42.984;20.336;2023-04-29T13:20:05;384.50;128.00
55331;DHT22;58851;42.984;20.336;2023-04-29T13:22:32;384.50;128.00
55331;DHT22;58851;42.984;20.336;2023-04-29T13:24:58;384.60;128.00
55331;DHT22;58851;42.984;20.336;2023-04-29T13:27:24;384.80;128.00
55331;DHT22;58851;42.984;20.336;2023-04-29T13:29:50;384.90;128.00
55331;DHT22;58851;42.984;20.336;2023-04-29T13:32:16;409.60;128.00
55331;DHT22;58851;42.984;20.336;2023-04-29T13:34:42;409.60;128.00
55331;DHT22;58851;42.984;20.336;2023-04-29T13:37:10;409.60;128.00
55331;DHT22;58851;42.984;20.336;2023-04-29T13:39:36;409.80;128.00
55331;DHT22;58851;42.984;20.336;2023-04-29T13:42:02;410.00;128.00
55331;DHT22;58851;42.984;20.336;2023-04-29T13:44:28;410.10;128.00
55331;DHT22;58851;42.984;20.336;2023-04-29T13:46:55;410.20;128.00
55331;DHT22;58851;42.984;20.336;2023-04-29T13:49:21;410.00;128.00
55331;DHT22;58851;42.984;20.336;2023-04-29T13:51:47;409.80;128.00
55331;DHT22;58851;42.984;20.336;2023-04-29T13:54:13;410.00;128.00
55331;DHT22;58851;42.984;20.336;2023-04-29T13:56:38;410.10;128.00
55331;DHT22;58851;42.984;20.336;2023-04-29T13:59:04;410.10;128.00
55331;DHT22;58851;42.984;20.336;2023-04-29T14:01:30;410.20;128.00
55331;DHT22;58851;42.984;20.336;2023-04-29T14:03:57;410.30;128.00
55331;DHT22;58851;42.984;20.336;2023-04-29T14:06:22;410.50;128.00
55331;DHT22;58851;42.984;20.336;2023-04-29T14:08:48;410.50;128.00
55331;DHT22;58851;42.984;20.336;2023-04-29T14:11:14;435.20;128.00
55331;DHT22;58851;42.984;20.336;2023-04-29T14:13:40;435.20;128.00
55331;DHT22;58851;42.984;20.336;2023-04-29T14:16:06;410.50;128.00
55331;DHT22;58851;42.984;20.336;2023-04-29T14:18:33;435.20;128.00
55331;DHT22;58851;42.984;20.336;2023-04-29T14:20:59;435.20;128.00
55331;DHT22;58851;42.984;20.336;2023-04-29T14:23:26;435.40;128.00
55331;DHT22;58851;42.984;20.336;2023-04-29T14:25:52;435.40;128.00
55331;DHT22;58851;42.984;20.336;2023-04-29T14:28:18;435.40;128.00
55331;DHT22;58851;42.984;20.336;2023-04-29T14:30:44;435.20;128.00
55331;DHT22;58851;42.984;20.336;2023-04-29T14:33:10;435.20;128.00
55331;DHT22;58851;42.984;20.336;2023-04-29T14:35:35;435.20;128.00
55331;DHT22;58851;42.984;20.336;2023-04-29T14:38:01;410.50;128.00
55331;DHT22;58851;42.984;20.336;2023-04-29T14:40:27;410.50;128.00
55331;DHT22;58851;42.984;20.336;2023-04-29T14:42:53;410.40;128.00
55331;DHT22;58851;42.984;20.336;2023-04-29T14:45:19;410.50;128.00
55331;DHT22;58851;42.984;20.336;2023-04-29T14:47:45;435.20;128.00
55331;DHT22;58851;42.984;20.336;2023-04-29T14:50:11;435.30;128.00
55331;DHT22;58851;42.984;20.336;2023-04-29T14:52:37;435.40;128.00
55331;DHT22;58851;42.984;20.336;2023-04-29T14:55:03;435.50;128.00
55331;DHT22;58851;42.984;20.336;2023-04-29T14:57:29;435.50;128.00
55331;DHT22;58851;42.984;20.336;2023-04-29T14:59:55;435.40;128.00
55331;DHT22;58851;42.984;20.336;2023-04-29T15:02:21;435.30;128.00
55331;DHT22;58851;42.984;20.336;2023-04-29T15:04:46;435.30;128.00
55331;DHT22;58851;42.984;20.336;2023-04-29T15:07:13;435.30;128.00
55331;DHT22;58851;42.984;20.336;2023-04-29T15:09:40;435.40;128.00
55331;DHT22;58851;42.984;20.336;2023-04-29T15:12:07;435.40;128.00
55331;DHT22;58851;42.984;20.336;2023-04-29T15:14:33;435.40;128.00
55331;DHT22;58851;42.984;20.336;2023-04-29T15:16:59;435.50;128.00
55331;DHT22;58851;42.984;20.336;2023-04-29T15:19:24;435.50;460.80
55331;DHT22;58851;42.984;20.336;2023-04-29T15:21:51;435.70;486.40
55331;DHT22;58851;42.984;20.336;2023-04-29T15:24:17;436.00;256.00
55331;DHT22;58851;42.984;20.336;2023-04-29T15:26:43;435.80;460.80